Weather observations for the past three days for
Columbus, Ohio State University Airport
Imperial (Metric)
Date Time (edt) Wind (mph) Vis. (mi.) Weather Sky Cond. Temperature (ºF) Relative Humidity Wind Chill (°F) Heat Index (°F) Pressure Precipitation (in)
Air Dwpt 6 hour altimeter (in) sea level (mb) 1 hr 3 hr 6 hr
Max. Min.
04 13:53 NW 8 10.00 Thunderstorm in Vicinity FEW080 SCT090 79 72 84 73 79% 82 30.02 1015.9 0.25
04 12:53 NW 9 1.75 Thunderstorm in Vicinity Rain Fog/Mist FEW028 BKN090 OVC110 75.9 73 91% 76 30.05 1016.7 0.23
04 11:53 N 3 7.00 Thunderstorm in Vicinity Light Rain FEW023 BKN060 OVC090 80.6 73.4 79% 85 30.04 0.0
04 10:53 NW 5 10.00 Thunderstorm in Vicinity BKN070 BKN090 OVC110 81 73 77% 86 30.03 1015.9 0.01 0.01
04 09:53 S 3 10.00 A Few Clouds FEW120 82 72 72% 87 30 1015.1
04 08:53 Calm 10.00 Fair CLR 78.1 72 82% 80 30.02 1015.6
04 07:53 Calm 10.00 A Few Clouds FEW110 73 71.1 75 70 94% 30.02 1015.7
04 06:53 E 3 10.00 Fair CLR 71.1 69.1 94% 29.99 1014.8
04 05:53 NE 3 10.00 Fair CLR 71.1 69.1 94% 29.98 1014.2
04 04:53 S 3 10.00 Fair CLR 73 70 90% 29.97 1014.0
04 03:53 Calm 10.00 Fair CLR 73 69.1 87% 29.98 1014.3
04 02:53 Calm 10.00 Fair CLR 75 69.1 82% 75 29.99 1014.6
04 01:53 Calm 10.00 Fair CLR 75 69.1 86 73.9 82% 75 30 1014.8
04 00:53 SE 6 10.00 Fair CLR 77 69.1 77% 79 30.01 1015.2
03 23:53 E 5 10.00 Fair CLR 75 69.1 82% 75 30.01 1015.1
03 22:53 NE 3 10.00 Fair CLR 75.9 68 77% 77 30.02 1015.4
03 21:53 N 3 10.00 Fair CLR 77 69.1 77% 79 30 1015.1
03 20:53 NE 12 10.00 Partly Cloudy SCT055 SCT100 80.1 69.1 69% 83 30 1015.0
03 19:53 W 6 10.00 Fair CLR 86 70 95 86 59% 91 29.99 1014.4
03 18:53 W 10 10.00 Fair CLR 90 69.1 50% 95 29.97 1013.9
03 17:53 W 15 G 21 10.00 Fair CLR 91.9 70 49% 98 29.96 1013.7
03 16:53 W 14 G 22 10.00 A Few Clouds FEW055 93 70 47% 99 29.94 1012.8
03 15:53 SW 12 G 20 10.00 Partly Cloudy SCT060 SCT075 93 70 47% 99 29.96 1013.5
03 14:53 SW 7 10.00 Partly Cloudy SCT055 93.9 70 46% 100 29.99 1014.5
03 13:53 W 10 10.00 Partly Cloudy SCT070 91.9 70 93 77 49% 98 30.01 1015.2
03 12:53 W 9 10.00 Fair CLR 91.9 72 52% 100 30.02 1015.6
03 11:53 W 7 10.00 Fair CLR 90 73 58% 98 30.03 1016.0
03 10:53 W 10 10.00 Fair CLR 88 72 59% 95 30.03 1015.9
03 09:53 W 8 10.00 Fair CLR 84.9 72 65% 91 30.03 1016.1
03 08:53 SW 7 10.00 Fair CLR 80.1 71.1 74% 84 30.05 1016.5
03 07:53 W 5 10.00 Fair CLR 77 71.1 81 75 82% 79 30.04 1016.3
03 06:53 W 6 9.00 Fair CLR 75.9 70 82% 77 30.02 1015.7
03 05:53 W 5 10.00 Fair CLR 75.9 70 82% 77 30.01 1015.4
03 04:53 W 5 10.00 Fair CLR 77 70 79% 79 30.01 1015.3
03 03:53 W 6 10.00 Fair CLR 79 70 74% 82 30.01 1015.1
03 02:53 W 5 10.00 Fair CLR 78.1 70 76% 80 30.02 1015.4
03 01:53 SW 7 10.00 Fair CLR 81 71.1 88 81 72% 85 30.02 1015.5
03 00:53 SW 8 10.00 Fair CLR 82 71.1 69% 86 30 1014.9
02 23:53 SW 8 10.00 Fair CLR 82 71.1 69% 86 30 1014.7
02 22:53 SW 7 10.00 Fair CLR 82.9 71.1 67% 88 30.01 1015.4
02 21:53 SW 7 10.00 Fair CLR 84 71.1 65% 89 30.02 1015.4
02 20:53 SW 7 10.00 Fair CLR 86 71.1 61% 92 30 1015.1
02 19:53 SW 7 10.00 Fair CLR 88 70 93.9 88 55% 93 30 1014.8
02 18:53 SW 14 10.00 Fair CLR 90 69.1 50% 95 30 1014.7
02 17:53 SW 12 10.00 Partly Cloudy SCT060 91.9 69.1 47% 97 30 1014.9
02 16:53 SW 14 G 24 10.00 A Few Clouds FEW060 91 69.1 49% 96 30 1015.0
02 15:53 S 13 G 23 10.00 A Few Clouds FEW060 93.9 68 43% 98 30.02 1015.5
02 14:53 W 8 10.00 A Few Clouds FEW055 93 71.1 49% 100 30.04 1016.1
02 13:53 W 9 10.00 A Few Clouds FEW075 91.9 70 91.9 77 49% 98 30.06 1016.8
02 12:53 W 10 10.00 Fair CLR 91 70 50% 97 30.07 1017.1
02 11:53 SW 8 10.00 A Few Clouds FEW075 89.1 72 57% 96 30.08 1017.4
02 10:53 SW 6 10.00 A Few Clouds FEW085 86 71.1 61% 92 30.08 1017.6
02 09:53 SW 7 10.00 A Few Clouds FEW080 FEW100 82.9 71.1 67% 88 30.08 1017.6
02 08:53 SW 6 10.00 Mostly Cloudy BKN075 80.1 70 71% 83 30.07 1017.4
02 07:53 S 3 10.00 Fair CLR 77 70 79 73 79% 79 30.07 1017.2
02 05:53 S 6 10.00 Fair CLR 75 69.1 82% 75 30.06 1016.9
02 04:53 S 3 10.00 Fair CLR 75.9 70 82% 77 30.06 1016.8
02 03:53 Calm 10.00 Fair CLR 77 70 79% 79 30.04 1016.4
02 02:53 SW 3 10.00 Fair CLR 77 70 79% 79 30.04 1016.3
02 01:53 SW 5 10.00 Fair CLR 78.1 70 87.1 78.1 76% 80 30.04 1016.2
02 00:53 SW 6 10.00 Fair CLR 80.1 70 71% 83 30.03 1016.0
01 23:53 SW 9 G 20 10.00 Fair CLR 82 70 67% 86 30.02 1015.8
01 22:53 SW 10 10.00 Fair CLR 82.9 71.1 67% 88 30.03 1015.9
01 21:53 SW 7 10.00 Fair CLR 82.9 71.1 67% 88 30.03 1015.9
01 20:53 SW 5 10.00 Fair CLR 84.9 71.1 63% 90 30.02 1015.6
01 19:53 SW 6 10.00 Fair CLR 87.1 71.1 91.9 87.1 59% 93 30.03 1015.8
01 18:53 SW 8 10.00 Fair CLR 89.1 71.1 55% 95 30.04 1016.1
01 17:53 SW 9 10.00 Partly Cloudy SCT090 90 72 56% 97 30.04 1016.3
01 16:53 SW 12 G 21 10.00 Partly Cloudy SCT050 91 71.1 52% 98 30.04 1016.3
01 15:53 SW 13 G 24 10.00 Fair CLR 91.9 69.1 47% 97 30.03 1016.0
01 14:53 S 14 G 22 10.00 Mostly Cloudy BKN110 91.9 71.1 51% 99 30.04 1016.4
Date Time (edt) Wind (mph) Vis. (mi.) Weather Sky Cond. Air Dwpt Max. Min. Relative Humidity Wind Chill (°F) Heat Index (°F) altimeter (in) sea level (mb) 1 hr 3 hr 6 hr
6 hour
Temperature (ºF) Pressure Precipitation (in)